^^
Datos históricos de la estación: Murcia-Puente Tocinos
Diario Informe para Abril 2, 2019 Unidades:  Ambas    Inglés   Métrico
Diario Semanal Mensual Anual Configurable
  Máximo: Mínimo: Media:
Temperatura: 72.3 °F /  22.4 °C 54.3 °F /  12.4 °C 62.4 °F /  16.9 °C
Punto de rocio: 54.9 °F /  12.7 °C 46.2 °F /  7.9 °C 52.2 °F /  11.2 °C
Humedad: 94% 40% 72%
Velocidad viento: 10mph /  16.1km/h - 3.4mph /  5.5km/h
Racha viento: 18mph /  29.0km/h - -
Viento- - South
Presión: 30 in /  1015.7 hPa 29.8 in /  1010.0 hPa -
Precipitación: 0 in /  0.0 mm    
Historical Graphs
 
 
Tabla de datos para Abril 2, 2019
Hora Temperatura Punto de rocio Presión Viento Velocidad viento Racha viento Humedad Intensidad lluvia(por hora) Nubes
00:00 57.4 °F /  14.1 °C 54.5 °F /  12.5 °C 30in /  1015.5hPa NE 3mph /  4.8km/h 5mph /  8.0km/h 90% 0in /  0.0mm RA
00:05 57.4 °F /  14.1 °C 54.5 °F /  12.5 °C 30in /  1015.6hPa NE 3.1mph /  5.0km/h 4.6mph /  7.4km/h 90% 0in /  0.0mm RA
00:10 57.4 °F /  14.1 °C 54.5 °F /  12.5 °C 30in /  1015.6hPa NE 2.9mph /  4.7km/h 4.6mph /  7.4km/h 90% 0in /  0.0mm RA
00:15 57.4 °F /  14.1 °C 54.5 °F /  12.5 °C 30in /  1015.6hPa NE 2mph /  3.2km/h 6mph /  9.7km/h 90% 0in /  0.0mm CLR
00:19 57.4 °F /  14.1 °C 54.5 °F /  12.5 °C 30in /  1015.7hPa NE 2.9mph /  4.7km/h 2.9mph /  4.7km/h 90% 0in /  0.0mm CLR
00:25 57.4 °F /  14.1 °C 54.5 °F /  12.5 °C 30in /  1015.7hPa NE 2mph /  3.2km/h 7mph /  11.3km/h 90% 0in /  0.0mm CLR
00:29 57.2 °F /  14.0 °C 54.3 °F /  12.4 °C 30in /  1015.7hPa NNE 3.6mph /  5.8km/h 6.2mph /  10.0km/h 90% 0in /  0.0mm CLR
00:34 57.2 °F /  14.0 °C 54.3 °F /  12.4 °C 30in /  1015.6hPa NE 3.6mph /  5.8km/h 5.8mph /  9.3km/h 90% 0in /  0.0mm CLR
00:40 57.2 °F /  14.0 °C 54.3 °F /  12.4 °C 30in /  1015.6hPa NNE 4.3mph /  6.9km/h 4.6mph /  7.4km/h 90% 0in /  0.0mm CLR
00:45 57 °F /  13.9 °C 54.1 °F /  12.3 °C 30in /  1015.6hPa NNE 5mph /  8.0km/h 5mph /  8.0km/h 90% 0in /  0.0mm CLR
00:50 57 °F /  13.9 °C 54.3 °F /  12.4 °C 30in /  1015.7hPa NE 3.1mph /  5.0km/h 4.6mph /  7.4km/h 91% 0in /  0.0mm CLR
00:55 57 °F /  13.9 °C 54.3 °F /  12.4 °C 30in /  1015.7hPa NE 3mph /  4.8km/h 5mph /  8.0km/h 91% 0in /  0.0mm CLR
00:59 57 °F /  13.9 °C 54.3 °F /  12.4 °C 30in /  1015.7hPa NE 2.9mph /  4.7km/h 4mph /  6.4km/h 91% 0in /  0.0mm CLR
01:05 57 °F /  13.9 °C 54.3 °F /  12.4 °C 30in /  1015.6hPa NE 2.9mph /  4.7km/h 4.6mph /  7.4km/h 91% 0in /  0.0mm CLR
01:10 57 °F /  13.9 °C 54.3 °F /  12.4 °C 30in /  1015.6hPa NE 2mph /  3.2km/h 6mph /  9.7km/h 91% 0in /  0.0mm CLR
01:15 57 °F /  13.9 °C 54.3 °F /  12.4 °C 30in /  1015.6hPa NE 2.4mph /  3.9km/h 3.5mph /  5.6km/h 91% 0in /  0.0mm CLR
01:20 57 °F /  13.9 °C 54.3 °F /  12.4 °C 30in /  1015.6hPa NE 2.9mph /  4.7km/h 4.6mph /  7.4km/h 91% 0in /  0.0mm CLR
01:25 57 °F /  13.9 °C 54.3 °F /  12.4 °C 30in /  1015.6hPa NE 2mph /  3.2km/h 5mph /  8.0km/h 91% 0in /  0.0mm CLR
01:30 57 °F /  13.9 °C 54.3 °F /  12.4 °C 30in /  1015.6hPa NE 2mph /  3.2km/h 3.5mph /  5.6km/h 91% 0in /  0.0mm CLR
01:35 57 °F /  13.9 °C 54.1 °F /  12.3 °C 30in /  1015.6hPa East 2mph /  3.2km/h   90% 0in /  0.0mm CLR
01:40 57 °F /  13.9 °C 54.1 °F /  12.3 °C 30in /  1015.6hPa ENE 2mph /  3.2km/h   90% 0in /  0.0mm CLR
01:45 57.2 °F /  14.0 °C 54.3 °F /  12.4 °C 30in /  1015.6hPa East 2mph /  3.2km/h   90% 0in /  0.0mm CLR
01:50 57.4 °F /  14.1 °C 54.5 °F /  12.5 °C 30in /  1015.6hPa Calm     90% 0in /  0.0mm CLR
01:55 57.2 °F /  14.0 °C 54 °F /  12.2 °C 30in /  1015.6hPa Calm     89% 0in /  0.0mm CLR
02:00 57.4 °F /  14.1 °C 54.5 °F /  12.5 °C 30in /  1015.6hPa Calm   2mph /  3.2km/h 90% 0in /  0.0mm CLR
02:05 57.4 °F /  14.1 °C 54.5 °F /  12.5 °C 30in /  1015.7hPa Calm   4.6mph /  7.4km/h 90% 0in /  0.0mm CLR
02:10 57.2 °F /  14.0 °C 54.3 °F /  12.4 °C 30in /  1015.7hPa North 2mph /  3.2km/h 3.5mph /  5.6km/h 90% 0in /  0.0mm CLR
02:15 57.2 °F /  14.0 °C 54.3 °F /  12.4 °C 30in /  1015.7hPa North 2mph /  3.2km/h 4mph /  6.4km/h 90% 0in /  0.0mm CLR
02:20 57.2 °F /  14.0 °C 54.3 °F /  12.4 °C 30in /  1015.6hPa North 2mph /  3.2km/h 4mph /  6.4km/h 90% 0in /  0.0mm CLR
02:25 57.2 °F /  14.0 °C 54.3 °F /  12.4 °C 30in /  1015.6hPa North 2mph /  3.2km/h 2.3mph /  3.7km/h 90% 0in /  0.0mm CLR
02:30 57.4 °F /  14.1 °C 54.9 °F /  12.7 °C 30in /  1015.6hPa North 1.4mph /  2.3km/h 2.4mph /  3.9km/h 91% 0in /  0.0mm CLR
02:35 57.4 °F /  14.1 °C 54.9 °F /  12.7 °C 30in /  1015.7hPa North 1.4mph /  2.3km/h   91% 0in /  0.0mm CLR
02:40 57.4 °F /  14.1 °C 54.7 °F /  12.6 °C 30in /  1015.7hPa North 2mph /  3.2km/h 3mph /  4.8km/h 91% 0in /  0.0mm CLR
02:45 57.2 °F /  14.0 °C 54.7 °F /  12.6 °C 30in /  1015.7hPa North 1.8mph /  2.9km/h   91% 0in /  0.0mm CLR
02:50 57.4 °F /  14.1 °C 54.9 °F /  12.7 °C 30in /  1015.5hPa Calm     91% 0in /  0.0mm CLR
02:55 57.4 °F /  14.1 °C 54.9 °F /  12.7 °C 30in /  1015.5hPa Calm     91% 0in /  0.0mm CLR
03:00 57.4 °F /  14.1 °C 54.9 °F /  12.7 °C 30in /  1015.5hPa Calm     91% 0in /  0.0mm CLR
03:05 57.4 °F /  14.1 °C 54.9 °F /  12.7 °C 30in /  1015.4hPa Calm     91% 0in /  0.0mm CLR
03:10 57.2 °F /  14.0 °C 54.7 °F /  12.6 °C 30in /  1015.4hPa Calm   2.3mph /  3.7km/h 91% 0in /  0.0mm CLR
03:15 57.2 °F /  14.0 °C 54.7 °F /  12.6 °C 30in /  1015.4hPa Calm     91% 0in /  0.0mm CLR
03:20 57.2 °F /  14.0 °C 54.7 °F /  12.6 °C 30in /  1015.1hPa Calm     91% 0in /  0.0mm CLR
03:25 57 °F /  13.9 °C 54.1 °F /  12.3 °C 30in /  1015.1hPa Calm     90% 0in /  0.0mm CLR
03:30 57 °F /  13.9 °C 54.1 °F /  12.3 °C 30in /  1015.1hPa Calm     90% 0in /  0.0mm CLR
03:35 57 °F /  13.9 °C 54.1 °F /  12.3 °C 30in /  1015.1hPa Calm   2.9mph /  4.7km/h 90% 0in /  0.0mm CLR
03:40 57 °F /  13.9 °C 54.3 °F /  12.4 °C 30in /  1015.1hPa ENE 1.8mph /  2.9km/h 1.2mph /  1.9km/h 91% 0in /  0.0mm CLR
03:45 56.8 °F /  13.8 °C 54.1 °F /  12.3 °C 30in /  1015.1hPa ENE 2mph /  3.2km/h 5mph /  8.0km/h 91% 0in /  0.0mm CLR
03:50 56.8 °F /  13.8 °C 54.1 °F /  12.3 °C 30in /  1015.0hPa ENE 1.4mph /  2.3km/h   91% 0in /  0.0mm CLR
03:55 56.8 °F /  13.8 °C 54.1 °F /  12.3 °C 30in /  1015.0hPa ENE 1.4mph /  2.3km/h   91% 0in /  0.0mm CLR
04:00 56.8 °F /  13.8 °C 54.1 °F /  12.3 °C 30in /  1015.0hPa Calm     91% 0in /  0.0mm CLR
04:05 57 °F /  13.9 °C 54.3 °F /  12.4 °C 30in /  1014.9hPa Calm     91% 0in /  0.0mm CLR
04:10 57 °F /  13.9 °C 54.3 °F /  12.4 °C 30in /  1014.9hPa Calm     91% 0in /  0.0mm CLR
04:15 57 °F /  13.9 °C 54.3 °F /  12.4 °C 30in /  1014.9hPa Calm     91% 0in /  0.0mm CLR
04:20 57 °F /  13.9 °C 54.3 °F /  12.4 °C 30in /  1014.8hPa Calm     91% 0in /  0.0mm CLR
04:25 57 °F /  13.9 °C 54.3 °F /  12.4 °C 30in /  1014.8hPa Calm     91% 0in /  0.0mm CLR
04:30 57 °F /  13.9 °C 54.3 °F /  12.4 °C 30in /  1014.8hPa Calm     91% 0in /  0.0mm CLR
04:35 57 °F /  13.9 °C 54.3 °F /  12.4 °C 30in /  1014.8hPa Calm     91% 0in /  0.0mm CLR
04:40 57 °F /  13.9 °C 54.3 °F /  12.4 °C 30in /  1014.8hPa Calm   4.6mph /  7.4km/h 91% 0in /  0.0mm CLR
04:45 57 °F /  13.9 °C 54.3 °F /  12.4 °C 30in /  1014.8hPa Calm   3.6mph /  5.8km/h 91% 0in /  0.0mm CLR
04:50 56.8 °F /  13.8 °C 54.1 °F /  12.3 °C 30in /  1014.7hPa SSW 2.4mph /  3.9km/h 5.9mph /  9.5km/h 91% 0in /  0.0mm CLR
04:55 56.8 °F /  13.8 °C 54.1 °F /  12.3 °C 30in /  1014.7hPa SW 2.4mph /  3.9km/h 5.8mph /  9.3km/h 91% 0in /  0.0mm CLR
05:00 56.8 °F /  13.8 °C 54 °F /  12.2 °C 30in /  1014.7hPa SSW 5mph /  8.0km/h 6mph /  9.7km/h 90% 0in /  0.0mm CLR
05:05 56.7 °F /  13.7 °C 53.8 °F /  12.1 °C 30in /  1014.5hPa SSW 4mph /  6.4km/h 4.6mph /  7.4km/h 90% 0in /  0.0mm CLR
05:10 56.7 °F /  13.7 °C 53.8 °F /  12.1 °C 30in /  1014.5hPa SSW 3.6mph /  5.8km/h 3.5mph /  5.6km/h 90% 0in /  0.0mm CLR
05:15 56.7 °F /  13.7 °C 53.8 °F /  12.1 °C 30in /  1014.5hPa SSW 3mph /  4.8km/h 5mph /  8.0km/h 90% 0in /  0.0mm CLR
05:20 56.7 °F /  13.7 °C 53.8 °F /  12.1 °C 30in /  1014.5hPa SSW 2.9mph /  4.7km/h 4.6mph /  7.4km/h 90% 0in /  0.0mm CLR
05:25 56.5 °F /  13.6 °C 54 °F /  12.2 °C 30in /  1014.5hPa SSW 2.9mph /  4.7km/h 4.6mph /  7.4km/h 91% 0in /  0.0mm CLR
05:30 56.5 °F /  13.6 °C 54 °F /  12.2 °C 30in /  1014.5hPa South 3.1mph /  5.0km/h 4.6mph /  7.4km/h 91% 0in /  0.0mm CLR
05:35 56.3 °F /  13.5 °C 53.8 °F /  12.1 °C 30in /  1014.6hPa South 3mph /  4.8km/h 6mph /  9.7km/h 91% 0in /  0.0mm CLR
05:40 56.1 °F /  13.4 °C 53.4 °F /  11.9 °C 30in /  1014.6hPa SSW 3.6mph /  5.8km/h 4.6mph /  7.4km/h 91% 0in /  0.0mm CLR
05:45 56.1 °F /  13.4 °C 53.4 °F /  11.9 °C 30in /  1014.6hPa SSW 3.6mph /  5.8km/h 4.6mph /  7.4km/h 91% 0in /  0.0mm CLR
05:50 56.1 °F /  13.4 °C 53.4 °F /  11.9 °C 30in /  1014.6hPa SSW 3.1mph /  5.0km/h 3.5mph /  5.6km/h 91% 0in /  0.0mm CLR
05:55 56.1 °F /  13.4 °C 53.8 °F /  12.1 °C 30in /  1014.6hPa SSW 3.1mph /  5.0km/h 3.5mph /  5.6km/h 92% 0in /  0.0mm CLR
06:00 55.9 °F /  13.3 °C 53.6 °F /  12.0 °C 30in /  1014.6hPa SSW 2mph /  3.2km/h 5mph /  8.0km/h 92% 0in /  0.0mm CLR
06:05 55.9 °F /  13.3 °C 53.6 °F /  12.0 °C 30in /  1014.3hPa South 2mph /  3.2km/h 5mph /  8.0km/h 92% 0in /  0.0mm CLR
06:10 55.9 °F /  13.3 °C 53.6 °F /  12.0 °C 30in /  1014.3hPa South 2.9mph /  4.7km/h 4.6mph /  7.4km/h 92% 0in /  0.0mm CLR
06:15 55.9 °F /  13.3 °C 53.6 °F /  12.0 °C 30in /  1014.3hPa SSE 2.9mph /  4.7km/h 4.6mph /  7.4km/h 92% 0in /  0.0mm CLR
06:20 55.9 °F /  13.3 °C 53.6 °F /  12.0 °C 30in /  1014.3hPa South 3.1mph /  5.0km/h 4.6mph /  7.4km/h 92% 0in /  0.0mm CLR
06:25 55.8 °F /  13.2 °C 53.4 °F /  11.9 °C 30in /  1014.3hPa South 3.1mph /  5.0km/h 5.8mph /  9.3km/h 92% 0in /  0.0mm CLR
06:30 55.8 °F /  13.2 °C 53.2 °F /  11.8 °C 30in /  1014.3hPa South 3.6mph /  5.8km/h 4.6mph /  7.4km/h 91% 0in /  0.0mm CLR
06:35 55.8 °F /  13.2 °C 53.2 °F /  11.8 °C 30in /  1014.4hPa South 3.6mph /  5.8km/h 4.7mph /  7.6km/h 91% 0in /  0.0mm CLR
06:40 55.8 °F /  13.2 °C 53.2 °F /  11.8 °C 30in /  1014.4hPa South 5mph /  8.0km/h 6mph /  9.7km/h 91% 0in /  0.0mm CLR
06:45 55.8 °F /  13.2 °C 53.2 °F /  11.8 °C 30in /  1014.4hPa South 4mph /  6.4km/h 5.8mph /  9.3km/h 91% 0in /  0.0mm CLR
06:50 55.8 °F /  13.2 °C 53.2 °F /  11.8 °C 30in /  1014.2hPa South 4mph /  6.4km/h 4.7mph /  7.6km/h 91% 0in /  0.0mm CLR
06:55 55.8 °F /  13.2 °C 53.2 °F /  11.8 °C 30in /  1014.2hPa South 4mph /  6.4km/h 5.9mph /  9.5km/h 91% 0in /  0.0mm CLR
07:00 55.8 °F /  13.2 °C 53.2 °F /  11.8 °C 30in /  1014.2hPa South 5mph /  8.0km/h 6mph /  9.7km/h 91% 0in /  0.0mm CLR
07:05 55.9 °F /  13.3 °C 53.4 °F /  11.9 °C 30in /  1014.3hPa South 4mph /  6.4km/h 4.7mph /  7.6km/h 91% 0in /  0.0mm CLR
07:10 55.9 °F /  13.3 °C 53.4 °F /  11.9 °C 30in /  1014.3hPa SSW 4mph /  6.4km/h 4.6mph /  7.4km/h 91% 0in /  0.0mm CLR
07:15 56.1 °F /  13.4 °C 53.2 °F /  11.8 °C 30in /  1014.3hPa SSE 4mph /  6.4km/h 5.8mph /  9.3km/h 90% 0in /  0.0mm CLR
07:20 56.1 °F /  13.4 °C 53.2 °F /  11.8 °C 30in /  1014.4hPa South 3.6mph /  5.8km/h 6.2mph /  10.0km/h 90% 0in /  0.0mm CLR
07:25 56.1 °F /  13.4 °C 53.2 °F /  11.8 °C 30in /  1014.4hPa South 3.6mph /  5.8km/h 4.6mph /  7.4km/h 90% 0in /  0.0mm CLR
07:30 56.1 °F /  13.4 °C 53.2 °F /  11.8 °C 30in /  1014.4hPa South 2.9mph /  4.7km/h 3.5mph /  5.6km/h 90% 0in /  0.0mm CLR
07:35 56.1 °F /  13.4 °C 53.2 °F /  11.8 °C 30in /  1014.3hPa SSW 2.9mph /  4.7km/h 4.6mph /  7.4km/h 90% 0in /  0.0mm CLR
07:40 56.1 °F /  13.4 °C 53.2 °F /  11.8 °C 30in /  1014.3hPa SSW 2.4mph /  3.9km/h 2.3mph /  3.7km/h 90% 0in /  0.0mm CLR
07:45 55.8 °F /  13.2 °C 52.5 °F /  11.4 °C 30in /  1014.3hPa SSW 2.4mph /  3.9km/h 3.5mph /  5.6km/h 89% 0in /  0.0mm CLR
07:50 55.2 °F /  12.9 °C 52 °F /  11.1 °C 30in /  1014.4hPa SSW 1.8mph /  2.9km/h 3.5mph /  5.6km/h 89% 0in /  0.0mm CLR
07:55 54.9 °F /  12.7 °C 52 °F /  11.1 °C 30in /  1014.4hPa SSW 2mph /  3.2km/h 4mph /  6.4km/h 90% 0in /  0.0mm CLR
08:00 54.7 °F /  12.6 °C 51.8 °F /  11.0 °C 30in /  1014.4hPa SSW 2mph /  3.2km/h 3mph /  4.8km/h 90% 0in /  0.0mm CLR
08:05 54.3 °F /  12.4 °C 51.6 °F /  10.9 °C 30in /  1014.6hPa SSW 2mph /  3.2km/h   91% 0in /  0.0mm CLR
08:10 54.3 °F /  12.4 °C 51.6 °F /  10.9 °C 30in /  1014.6hPa Calm   1.4mph /  2.3km/h 91% 0in /  0.0mm CLR
08:15 54.3 °F /  12.4 °C 52 °F /  11.1 °C 30in /  1014.6hPa Calm   1.2mph /  1.9km/h 92% 0in /  0.0mm CLR
08:20 54.3 °F /  12.4 °C 52 °F /  11.1 °C 30in /  1014.7hPa Calm     92% 0in /  0.0mm CLR
08:25 54.3 °F /  12.4 °C 52 °F /  11.1 °C 30in /  1014.7hPa Calm   2.4mph /  3.9km/h 92% 0in /  0.0mm CLR
08:30 54.3 °F /  12.4 °C 52 °F /  11.1 °C 30in /  1014.7hPa SSW 1.8mph /  2.9km/h 3.5mph /  5.6km/h 92% 0in /  0.0mm CLR
08:35 54.5 °F /  12.5 °C 52.2 °F /  11.2 °C 30in /  1014.8hPa SSW 1.8mph /  2.9km/h 2.4mph /  3.9km/h 92% 0in /  0.0mm CLR
08:40 54.7 °F /  12.6 °C 52.7 °F /  11.5 °C 30in /  1014.8hPa SSW 1.8mph /  2.9km/h 2.3mph /  3.7km/h 93% 0in /  0.0mm CLR
08:45 54.7 °F /  12.6 °C 52.7 °F /  11.5 °C 30in /  1014.8hPa SSW 1.8mph /  2.9km/h   93% 0in /  0.0mm CLR
08:50 54.7 °F /  12.6 °C 52.7 °F /  11.5 °C 30in /  1014.8hPa Calm   1.2mph /  1.9km/h 93% 0in /  0.0mm CLR
08:55 54.9 °F /  12.7 °C 52.9 °F /  11.6 °C 30in /  1014.8hPa Calm   2.3mph /  3.7km/h 93% 0in /  0.0mm CLR
09:00 55 °F /  12.8 °C 53.1 °F /  11.7 °C 30in /  1014.8hPa SSW 1mph /  1.6km/h 3mph /  4.8km/h 93% 0in /  0.0mm CLR
09:05 55.2 °F /  12.9 °C 53.4 °F /  11.9 °C 30in /  1014.9hPa SSW 1.4mph /  2.3km/h 2.9mph /  4.7km/h 94% 0in /  0.0mm CLR
09:10 55.4 °F /  13.0 °C 53.4 °F /  11.9 °C 30in /  1014.9hPa SSW 1.4mph /  2.3km/h 2.3mph /  3.7km/h 93% 0in /  0.0mm CLR
09:15 55.6 °F /  13.1 °C 53.6 °F /  12.0 °C 30in /  1014.9hPa South 1.4mph /  2.3km/h 4.6mph /  7.4km/h 93% 0in /  0.0mm CLR
09:20 55.8 °F /  13.2 °C 53.8 °F /  12.1 °C 30in /  1014.9hPa SSW 2mph /  3.2km/h 5mph /  8.0km/h 93% 0in /  0.0mm CLR
09:25 55.9 °F /  13.3 °C 54 °F /  12.2 °C 30in /  1014.9hPa SSW 2mph /  3.2km/h 4.6mph /  7.4km/h 93% 0in /  0.0mm CLR
09:30 56.1 °F /  13.4 °C 53.8 °F /  12.1 °C 30in /  1014.9hPa South 3.1mph /  5.0km/h 4.6mph /  7.4km/h 92% 0in /  0.0mm CLR
09:35 56.1 °F /  13.4 °C 53.8 °F /  12.1 °C 30in /  1014.8hPa SSW 3.1mph /  5.0km/h 4.6mph /  7.4km/h 92% 0in /  0.0mm CLR
09:40 56.5 °F /  13.6 °C 54 °F /  12.2 °C 30in /  1014.8hPa South 3.1mph /  5.0km/h 3.5mph /  5.6km/h 91% 0in /  0.0mm CLR
09:45 56.8 °F /  13.8 °C 54.1 °F /  12.3 °C 30in /  1014.8hPa WSW 3.1mph /  5.0km/h 4.6mph /  7.4km/h 91% 0in /  0.0mm CLR
09:50 57 °F /  13.9 °C 54.1 °F /  12.3 °C 30in /  1014.9hPa West 2.4mph /  3.9km/h 4.6mph /  7.4km/h 90% 0in /  0.0mm CLR
09:55 57 °F /  13.9 °C 53.8 °F /  12.1 °C 30in /  1014.9hPa West 2.4mph /  3.9km/h 4.6mph /  7.4km/h 89% 0in /  0.0mm CLR
10:00 57 °F /  13.9 °C 54 °F /  12.2 °C 30in /  1014.9hPa West 2mph /  3.2km/h 6mph /  9.7km/h 89% 0in /  0.0mm CLR
10:05 57.4 °F /  14.1 °C 54 °F /  12.2 °C 30in /  1014.9hPa WSW 2.9mph /  4.7km/h 4.6mph /  7.4km/h 88% 0in /  0.0mm CLR
10:10 57.4 °F /  14.1 °C 54 °F /  12.2 °C 30in /  1014.9hPa NW 2.9mph /  4.7km/h 4.6mph /  7.4km/h 88% 0in /  0.0mm CLR
10:15 57.6 °F /  14.2 °C 54 °F /  12.2 °C 30in /  1014.9hPa WNW 2.9mph /  4.7km/h 2.3mph /  3.7km/h 88% 0in /  0.0mm CLR
10:20 57.7 °F /  14.3 °C 54 °F /  12.2 °C 30in /  1014.9hPa WNW 1.8mph /  2.9km/h 4.6mph /  7.4km/h 87% 0in /  0.0mm CLR
10:25 57.9 °F /  14.4 °C 53.8 °F /  12.1 °C 30in /  1014.9hPa SW 1.8mph /  2.9km/h 5.8mph /  9.3km/h 86% 0in /  0.0mm CLR
10:30 57.9 °F /  14.4 °C 53.4 °F /  11.9 °C 30in /  1014.9hPa SSW 2.9mph /  4.7km/h 4.6mph /  7.4km/h 85% 0in /  0.0mm CLR
10:35 58.3 °F /  14.6 °C 53.8 °F /  12.1 °C 30in /  1015.1hPa WSW 2.9mph /  4.7km/h 4.6mph /  7.4km/h 85% 0in /  0.0mm CLR
10:40 58.5 °F /  14.7 °C 53.6 °F /  12.0 °C 30in /  1015.1hPa SSW 3.6mph /  5.8km/h 6.9mph /  11.1km/h 84% 0in /  0.0mm CLR
10:45 58.6 °F /  14.8 °C 53.4 °F /  11.9 °C 30in /  1015.1hPa WNW 3.6mph /  5.8km/h 4.6mph /  7.4km/h 83% 0in /  0.0mm CLR
10:50 58.6 °F /  14.8 °C 53.4 °F /  11.9 °C 30in /  1015.1hPa SW 4mph /  6.4km/h 4.6mph /  7.4km/h 83% 0in /  0.0mm CLR
10:55 59.2 °F /  15.1 °C 53.8 °F /  12.1 °C 30in /  1015.1hPa SW 4mph /  6.4km/h 4.6mph /  7.4km/h 82% 0in /  0.0mm CLR
11:00 59.4 °F /  15.2 °C 54 °F /  12.2 °C 30in /  1015.1hPa SW 2mph /  3.2km/h 5mph /  8.0km/h 82% 0in /  0.0mm CLR
11:05 59.7 °F /  15.4 °C 54 °F /  12.2 °C 30in /  1015.1hPa WNW 2.4mph /  3.9km/h   81% 0in /  0.0mm CLR
11:10 60.3 °F /  15.7 °C 54.1 °F /  12.3 °C 30in /  1015.1hPa East 1.4mph /  2.3km/h 4.6mph /  7.4km/h 80% 0in /  0.0mm CLR
11:15 60.6 °F /  15.9 °C 54.1 °F /  12.3 °C 30in /  1015.1hPa West 1.4mph /  2.3km/h 6.4mph /  10.3km/h 79% 0in /  0.0mm CLR
11:20 60.8 °F /  16.0 °C 54 °F /  12.2 °C 30in /  1015.1hPa South 2.4mph /  3.9km/h 6.9mph /  11.1km/h 78% 0in /  0.0mm CLR
11:25 61.2 °F /  16.2 °C 54 °F /  12.2 °C 30in /  1015.1hPa South 2.4mph /  3.9km/h 4.6mph /  7.4km/h 77% 0in /  0.0mm CLR
11:30 61.3 °F /  16.3 °C 53.8 °F /  12.1 °C 30in /  1015.1hPa WNW 3.6mph /  5.8km/h 4.6mph /  7.4km/h 76% 0in /  0.0mm CLR
11:35 61.3 °F /  16.3 °C 53.8 °F /  12.1 °C 30in /  1015.1hPa WSW 3mph /  4.8km/h 7mph /  11.3km/h 76% 0in /  0.0mm CLR
11:40 61.9 °F /  16.6 °C 54 °F /  12.2 °C 30in /  1015.1hPa SSW 3.1mph /  5.0km/h 6.9mph /  11.1km/h 75% 0in /  0.0mm CLR
11:45 62.1 °F /  16.7 °C 54.3 °F /  12.4 °C 30in /  1015.1hPa South 3.1mph /  5.0km/h 3.5mph /  5.6km/h 76% 0in /  0.0mm CLR
11:50 62.6 °F /  17.0 °C 54.1 °F /  12.3 °C 30in /  1014.9hPa West 2.9mph /  4.7km/h 4.7mph /  7.6km/h 74% 0in /  0.0mm CLR
11:55 62.8 °F /  17.1 °C 54 °F /  12.2 °C 30in /  1014.9hPa WSW 2.9mph /  4.7km/h 6.9mph /  11.1km/h 73% 0in /  0.0mm CLR
12:00 62.8 °F /  17.1 °C 53.6 °F /  12.0 °C 30in /  1014.9hPa WSW 3mph /  4.8km/h 7mph /  11.3km/h 72% 0in /  0.0mm CLR
12:05 63.1 °F /  17.3 °C 53.6 °F /  12.0 °C 30in /  1015.0hPa WSW 3mph /  4.8km/h 10mph /  16.1km/h 71% 0in /  0.0mm CLR
12:10 63.3 °F /  17.4 °C 53.8 °F /  12.1 °C 30in /  1015.0hPa West 3.6mph /  5.8km/h 2.3mph /  3.7km/h 71% 0in /  0.0mm CLR
12:15 64 °F /  17.8 °C 53.2 °F /  11.8 °C 30in /  1015.0hPa SW 3.6mph /  5.8km/h 6.9mph /  11.1km/h 68% 0in /  0.0mm CLR
12:20 64.2 °F /  17.9 °C 53.4 °F /  11.9 °C 30in /  1014.9hPa SSW 2.9mph /  4.7km/h 6.9mph /  11.1km/h 68% 0in /  0.0mm CLR
12:25 64.4 °F /  18.0 °C 53.2 °F /  11.8 °C 30in /  1014.9hPa SSW 2.9mph /  4.7km/h 4.6mph /  7.4km/h 67% 0in /  0.0mm CLR
12:30 64.6 °F /  18.1 °C 52.5 °F /  11.4 °C 30in /  1014.9hPa SSW 3.1mph /  5.0km/h 5.8mph /  9.3km/h 65% 0in /  0.0mm CLR
12:35 65.1 °F /  18.4 °C 53.1 °F /  11.7 °C 30in /  1014.8hPa East 3.1mph /  5.0km/h   65% 0in /  0.0mm CLR
12:40 65.8 °F /  18.8 °C 52.5 °F /  11.4 °C 30in /  1014.8hPa South 2.4mph /  3.9km/h 5.8mph /  9.3km/h 62% 0in /  0.0mm CLR
12:45 66 °F /  18.9 °C 52.5 °F /  11.4 °C 30in /  1014.8hPa West 2.4mph /  3.9km/h 1.4mph /  2.3km/h 62% 0in /  0.0mm CLR
12:50 66 °F /  18.9 °C 51.3 °F /  10.7 °C 30in /  1014.7hPa SW 2.4mph /  3.9km/h 4.6mph /  7.4km/h 59% 0in /  0.0mm CLR
12:55 66 °F /  18.9 °C 50.7 °F /  10.4 °C 30in /  1014.7hPa SSW 2.4mph /  3.9km/h 2.3mph /  3.7km/h 58% 0in /  0.0mm CLR
13:00 66.6 °F /  19.2 °C 51.3 °F /  10.7 °C 30in /  1014.7hPa SSW 2mph /  3.2km/h 5mph /  8.0km/h 58% 0in /  0.0mm CLR
13:05 66.9 °F /  19.4 °C 51.6 °F /  10.9 °C 30in /  1014.4hPa SW 2mph /  3.2km/h 10mph /  16.1km/h 58% 0in /  0.0mm CLR
13:10 66.9 °F /  19.4 °C 50.7 °F /  10.4 °C 30in /  1014.4hPa SW 4.3mph /  6.9km/h 5.2mph /  8.4km/h 56% 0in /  0.0mm CLR
13:15 67.3 °F /  19.6 °C 51.1 °F /  10.6 °C 30in /  1014.4hPa WSW 4.3mph /  6.9km/h 4.6mph /  7.4km/h 56% 0in /  0.0mm CLR
13:20 67.3 °F /  19.6 °C 51.1 °F /  10.6 °C 30in /  1014.3hPa NW 3.6mph /  5.8km/h 6.9mph /  11.1km/h 56% 0in /  0.0mm CLR
13:25 67.6 °F /  19.8 °C 50.4 °F /  10.2 °C 30in /  1014.3hPa WSW 3.6mph /  5.8km/h 8.1mph /  13.0km/h 54% 0in /  0.0mm CLR
13:30 67.5 °F /  19.7 °C 50.7 °F /  10.4 °C 30in /  1014.3hPa West 4mph /  6.4km/h 5.9mph /  9.5km/h 55% 0in /  0.0mm CLR
13:35 67.5 °F /  19.7 °C 51.3 °F /  10.7 °C 29.9in /  1014.1hPa NNW 4mph /  6.4km/h 6.9mph /  11.1km/h 56% 0in /  0.0mm CLR
13:40 67.6 °F /  19.8 °C 50.9 °F /  10.5 °C 29.9in /  1014.1hPa NE 4.7mph /  7.6km/h 4.7mph /  7.6km/h 55% 0in /  0.0mm CLR
13:45 68.2 °F /  20.1 °C 51.4 °F /  10.8 °C 29.9in /  1014.1hPa SSE 4.7mph /  7.6km/h 4.6mph /  7.4km/h 55% 0in /  0.0mm CLR
13:50 68.5 °F /  20.3 °C 51.3 °F /  10.7 °C 29.9in /  1013.8hPa West 2.9mph /  4.7km/h 6.9mph /  11.1km/h 54% 0in /  0.0mm CLR
13:55 68.4 °F /  20.2 °C 51.1 °F /  10.6 °C 29.9in /  1013.8hPa NW 2.9mph /  4.7km/h 9.2mph /  14.8km/h 54% 0in /  0.0mm CLR
14:00 68.4 °F /  20.2 °C 50.5 °F /  10.3 °C 29.9in /  1013.8hPa NW 6mph /  9.7km/h 9mph /  14.5km/h 53% 0in /  0.0mm CLR
14:05 68.4 °F /  20.2 °C 48.9 °F /  9.4 °C 29.9in /  1013.5hPa West 5.4mph /  8.7km/h 10.4mph /  16.7km/h 50% 0in /  0.0mm CLR
14:10 68.2 °F /  20.1 °C 47.7 °F /  8.7 °C 29.9in /  1013.5hPa WNW 5.2mph /  8.4km/h 9.2mph /  14.8km/h 48% 0in /  0.0mm CLR
14:15 68.4 °F /  20.2 °C 48.6 °F /  9.2 °C 29.9in /  1013.5hPa NNW 5.2mph /  8.4km/h 6.9mph /  11.1km/h 49% 0in /  0.0mm CLR
14:20 68.9 °F /  20.5 °C 48.9 °F /  9.4 °C 29.9in /  1013.1hPa West 4.7mph /  7.6km/h 9.2mph /  14.8km/h 49% 0in /  0.0mm CLR
14:25 68.9 °F /  20.5 °C 48.9 °F /  9.4 °C 29.9in /  1013.1hPa ESE 4.7mph /  7.6km/h 4.6mph /  7.4km/h 49% 0in /  0.0mm CLR
14:30 69.1 °F /  20.6 °C 48.6 °F /  9.2 °C 29.9in /  1013.1hPa West 4.7mph /  7.6km/h 8.1mph /  13.0km/h 48% 0in /  0.0mm CLR
14:35 69.4 °F /  20.8 °C 48.9 °F /  9.4 °C 29.9in /  1013.0hPa SE 4.7mph /  7.6km/h 6.9mph /  11.1km/h 48% 0in /  0.0mm CLR
14:40 70 °F /  21.1 °C 49.5 °F /  9.7 °C 29.9in /  1013.0hPa SW 4.7mph /  7.6km/h 5.8mph /  9.3km/h 48% 0in /  0.0mm CLR
14:45 70.3 °F /  21.3 °C 49.1 °F /  9.5 °C 29.9in /  1013.0hPa NE 4.7mph /  7.6km/h 3.5mph /  5.6km/h 47% 0in /  0.0mm CLR
14:50 70.7 °F /  21.5 °C 48.9 °F /  9.4 °C 29.9in /  1012.6hPa South 2.9mph /  4.7km/h 9.2mph /  14.8km/h 46% 0in /  0.0mm CLR
14:55 70.9 °F /  21.6 °C 49.1 °F /  9.5 °C 29.9in /  1012.6hPa SE 2.9mph /  4.7km/h 5.8mph /  9.3km/h 46% 0in /  0.0mm CLR
15:00 71.1 °F /  21.7 °C 48 °F /  8.9 °C 29.9in /  1012.6hPa South 3mph /  4.8km/h 6mph /  9.7km/h 44% 0in /  0.0mm CLR
15:05 70.9 °F /  21.6 °C 46.6 °F /  8.1 °C 29.9in /  1012.4hPa West 3.6mph /  5.8km/h 9.2mph /  14.8km/h 42% 0in /  0.0mm CLR
15:10 70.9 °F /  21.6 °C 47.8 °F /  8.8 °C 29.9in /  1012.4hPa South 4.7mph /  7.6km/h 10.7mph /  17.2km/h 44% 0in /  0.0mm CLR
15:15 70.3 °F /  21.3 °C 48 °F /  8.9 °C 29.9in /  1012.4hPa SSW 4.7mph /  7.6km/h 9.2mph /  14.8km/h 45% 0in /  0.0mm CLR
15:20 70.3 °F /  21.3 °C 48 °F /  8.9 °C 29.9in /  1012.1hPa WSW 6.9mph /  11.1km/h 9.2mph /  14.8km/h 45% 0in /  0.0mm CLR
15:25 70.9 °F /  21.6 °C 47.3 °F /  8.5 °C 29.9in /  1012.1hPa SW 6.9mph /  11.1km/h 9.2mph /  14.8km/h 43% 0in /  0.0mm CLR
15:30 71.1 °F /  21.7 °C 46.8 °F /  8.2 °C 29.9in /  1012.1hPa SE 5.4mph /  8.7km/h 8.1mph /  13.0km/h 42% 0in /  0.0mm CLR
15:35 71.8 °F /  22.1 °C 46.8 °F /  8.2 °C 29.9in /  1011.9hPa SSE 5.4mph /  8.7km/h 11.2mph /  18.0km/h 41% 0in /  0.0mm CLR
15:40 72 °F /  22.2 °C 46.2 °F /  7.9 °C 29.9in /  1011.9hPa SSW 5.9mph /  9.5km/h 9.2mph /  14.8km/h 40% 0in /  0.0mm CLR
15:45 71.8 °F /  22.1 °C 46.8 °F /  8.2 °C 29.9in /  1011.9hPa ESE 5.9mph /  9.5km/h 7.4mph /  11.9km/h 41% 0in /  0.0mm CLR
15:50 71.6 °F /  22.0 °C 46.6 °F /  8.1 °C 29.9in /  1011.7hPa SSE 5.2mph /  8.4km/h 6.9mph /  11.1km/h 41% 0in /  0.0mm CLR
15:55 72 °F /  22.2 °C 46.2 °F /  7.9 °C 29.9in /  1011.7hPa SW 5.2mph /  8.4km/h 9.2mph /  14.8km/h 40% 0in /  0.0mm CLR
16:00 72.3 °F /  22.4 °C 47.3 °F /  8.5 °C 29.9in /  1011.7hPa SW 6mph /  9.7km/h 10mph /  16.1km/h 41% 0in /  0.0mm CLR
16:05 72.1 °F /  22.3 °C 47.1 °F /  8.4 °C 29.9in /  1011.5hPa South 5.4mph /  8.7km/h 6.9mph /  11.1km/h 41% 0in /  0.0mm CLR
16:10 72.3 °F /  22.4 °C 47.3 °F /  8.5 °C 29.9in /  1011.5hPa SW 5.2mph /  8.4km/h 5.8mph /  9.3km/h 41% 0in /  0.0mm CLR
16:15 72.1 °F /  22.3 °C 47.1 °F /  8.4 °C 29.9in /  1011.5hPa SSW 5.2mph /  8.4km/h 9.2mph /  14.8km/h 41% 0in /  0.0mm CLR
16:20 72 °F /  22.2 °C 46.9 °F /  8.3 °C 29.9in /  1011.4hPa West 5.4mph /  8.7km/h 5.8mph /  9.3km/h 41% 0in /  0.0mm CLR
16:25 72 °F /  22.2 °C 47.7 °F /  8.7 °C 29.9in /  1011.4hPa SSE 5.4mph /  8.7km/h 12.5mph /  20.1km/h 42% 0in /  0.0mm CLR
16:30 72.1 °F /  22.3 °C 47.1 °F /  8.4 °C 29.9in /  1011.4hPa SSW 5.4mph /  8.7km/h 12.7mph /  20.4km/h 41% 0in /  0.0mm CLR
16:35 72.1 °F /  22.3 °C 47.8 °F /  8.8 °C 29.9in /  1011.2hPa SSE 5.4mph /  8.7km/h 6.9mph /  11.1km/h 42% 0in /  0.0mm CLR
16:40 72 °F /  22.2 °C 51.3 °F /  10.7 °C 29.9in /  1011.2hPa SSE 5.9mph /  9.5km/h 16.1mph /  25.9km/h 48% 0in /  0.0mm CLR
16:45 71.1 °F /  21.7 °C 52.5 °F /  11.4 °C 29.9in /  1011.2hPa SSW 5.9mph /  9.5km/h 13.5mph /  21.7km/h 52% 0in /  0.0mm CLR
16:50 70.5 °F /  21.4 °C 52 °F /  11.1 °C 29.9in /  1011.1hPa South 9.7mph /  15.6km/h 10.4mph /  16.7km/h 52% 0in /  0.0mm CLR
16:55 70.3 °F /  21.3 °C 52.3 °F /  11.3 °C 29.9in /  1011.1hPa SSE 9.7mph /  15.6km/h 13.8mph /  22.2km/h 53% 0in /  0.0mm CLR
17:00 70.2 °F /  21.2 °C 51.6 °F /  10.9 °C 29.9in /  1011.1hPa SSE 9mph /  14.5km/h 14mph /  22.5km/h 52% 0in /  0.0mm CLR
17:05 70.3 °F /  21.3 °C 52.3 °F /  11.3 °C 29.9in /  1010.9hPa SSE 9mph /  14.5km/h 18mph /  29.0km/h 53% 0in /  0.0mm CLR
17:10 70 °F /  21.1 °C 51.4 °F /  10.8 °C 29.9in /  1010.9hPa SSE 10mph /  16.1km/h 13.8mph /  22.2km/h 52% 0in /  0.0mm CLR
17:15 70.2 °F /  21.2 °C 51.6 °F /  10.9 °C 29.9in /  1010.9hPa SSE 10mph /  16.1km/h 11.5mph /  18.5km/h 52% 0in /  0.0mm CLR
17:20 70.3 °F /  21.3 °C 51.3 °F /  10.7 °C 29.9in /  1010.8hPa SSE 8.7mph /  14.0km/h 12.7mph /  20.4km/h 51% 0in /  0.0mm CLR
17:25 70.2 °F /  21.2 °C 51.6 °F /  10.9 °C 29.9in /  1010.8hPa SSW 8.7mph /  14.0km/h 15mph /  24.1km/h 52% 0in /  0.0mm CLR
17:30 70.5 °F /  21.4 °C 51.4 °F /  10.8 °C 29.9in /  1010.8hPa South 8.7mph /  14.0km/h 10.4mph /  16.7km/h 51% 0in /  0.0mm CLR
17:35 70.9 °F /  21.6 °C 51.3 °F /  10.7 °C 29.8in /  1010.7hPa SSE 8.7mph /  14.0km/h 10.4mph /  16.7km/h 50% 0in /  0.0mm CLR
17:40 70.9 °F /  21.6 °C 51.3 °F /  10.7 °C 29.8in /  1010.7hPa South 7.6mph /  12.2km/h 10.4mph /  16.7km/h 50% 0in /  0.0mm CLR
17:45 70.7 °F /  21.5 °C 51.1 °F /  10.6 °C 29.8in /  1010.7hPa SSE 7.6mph /  12.2km/h 10.4mph /  16.7km/h 50% 0in /  0.0mm CLR
17:50 70.7 °F /  21.5 °C 51.1 °F /  10.6 °C 29.8in /  1010.5hPa South 8.1mph /  13.0km/h 9.2mph /  14.8km/h 50% 0in /  0.0mm CLR
17:55 71.1 °F /  21.7 °C 51.4 °F /  10.8 °C 29.8in /  1010.5hPa South 8.1mph /  13.0km/h 10.4mph /  16.7km/h 50% 0in /  0.0mm CLR
18:00 71.2 °F /  21.8 °C 51.1 °F /  10.6 °C 29.8in /  1010.5hPa South 6mph /  9.7km/h 12mph /  19.3km/h 49% 0in /  0.0mm CLR
18:05 71.2 °F /  21.8 °C 50.5 °F /  10.3 °C 29.8in /  1010.3hPa SSE 6.2mph /  10.0km/h 8.1mph /  13.0km/h 48% 0in /  0.0mm CLR
18:10 71.2 °F /  21.8 °C 50 °F /  10.0 °C 29.8in /  1010.3hPa SSE 5.4mph /  8.7km/h 5.8mph /  9.3km/h 47% 0in /  0.0mm CLR
18:15 71.4 °F /  21.9 °C 50.7 °F /  10.4 °C 29.8in /  1010.3hPa South 5.4mph /  8.7km/h 7.4mph /  11.9km/h 48% 0in /  0.0mm CLR
18:20 71.8 °F /  22.1 °C 50.5 °F /  10.3 °C 29.8in /  1010.2hPa ESE 4.7mph /  7.6km/h 6.9mph /  11.1km/h 47% 0in /  0.0mm CLR
18:25 72.3 °F /  22.4 °C 50.4 °F /  10.2 °C 29.8in /  1010.2hPa SSW 4.7mph /  7.6km/h 8.1mph /  13.0km/h 46% 0in /  0.0mm CLR
18:30 72.1 °F /  22.3 °C 50.2 °F /  10.1 °C 29.8in /  1010.2hPa SSW 5.4mph /  8.7km/h 6.9mph /  11.1km/h 46% 0in /  0.0mm CLR
18:35 72 °F /  22.2 °C 50 °F /  10.0 °C 29.8in /  1010.1hPa East 5.4mph /  8.7km/h 6.4mph /  10.3km/h 46% 0in /  0.0mm CLR
18:40 72 °F /  22.2 °C 50 °F /  10.0 °C 29.8in /  1010.1hPa South 3.6mph /  5.8km/h 5.8mph /  9.3km/h 46% 0in /  0.0mm CLR
18:45 72.1 °F /  22.3 °C 51.4 °F /  10.8 °C 29.8in /  1010.1hPa South 3.6mph /  5.8km/h 11.4mph /  18.3km/h 48% 0in /  0.0mm CLR
18:50 71.8 °F /  22.1 °C 51.6 °F /  10.9 °C 29.8in /  1010.0hPa South 6.2mph /  10.0km/h 10.4mph /  16.7km/h 49% 0in /  0.0mm CLR
18:55 71.2 °F /  21.8 °C 51.1 °F /  10.6 °C 29.8in /  1010.0hPa SSW 6.2mph /  10.0km/h 10.4mph /  16.7km/h 49% 0in /  0.0mm CLR
19:00 71.4 °F /  21.9 °C 51.3 °F /  10.7 °C 29.8in /  1010.0hPa South 7mph /  11.3km/h 12mph /  19.3km/h 49% 0in /  0.0mm CLR
19:05 71.2 °F /  21.8 °C 51.6 °F /  10.9 °C 29.8in /  1010.0hPa SSE 7.4mph /  11.9km/h 12.7mph /  20.4km/h 50% 0in /  0.0mm CLR
19:10 71.1 °F /  21.7 °C 51.4 °F /  10.8 °C 29.8in /  1010.0hPa SSE 7.4mph /  11.9km/h 11.4mph /  18.3km/h 50% 0in /  0.0mm CLR
19:15 70.9 °F /  21.6 °C 51.8 °F /  11.0 °C 29.8in /  1010.0hPa SSE 7.4mph /  11.9km/h 11.5mph /  18.5km/h 51% 0in /  0.0mm CLR
19:20 70.7 °F /  21.5 °C 52.2 °F /  11.2 °C 29.8in /  1010.1hPa SE 7.6mph /  12.2km/h 8.1mph /  13.0km/h 52% 0in /  0.0mm CLR
19:25 70.5 °F /  21.4 °C 52 °F /  11.1 °C 29.8in /  1010.1hPa SSE 7.6mph /  12.2km/h 11.5mph /  18.5km/h 52% 0in /  0.0mm CLR
19:30 70.2 °F /  21.2 °C 51.6 °F /  10.9 °C 29.8in /  1010.1hPa SSE 6.4mph /  10.3km/h 12.7mph /  20.4km/h 52% 0in /  0.0mm CLR
19:35 69.4 °F /  20.8 °C 51.6 °F /  10.9 °C 29.8in /  1010.3hPa ESE 6.4mph /  10.3km/h 8.1mph /  13.0km/h 53% 0in /  0.0mm CLR
19:40 69.3 °F /  20.7 °C 51.4 °F /  10.8 °C 29.8in /  1010.3hPa SE 7.6mph /  12.2km/h 10.4mph /  16.7km/h 53% 0in /  0.0mm CLR
19:45 68.9 °F /  20.5 °C 51.1 °F /  10.6 °C 29.8in /  1010.3hPa SSE 7.6mph /  12.2km/h 9.2mph /  14.8km/h 53% 0in /  0.0mm CLR
19:50 68.7 °F /  20.4 °C 51.4 °F /  10.8 °C 29.8in /  1010.3hPa ESE 7.4mph /  11.9km/h 6.9mph /  11.1km/h 54% 0in /  0.0mm CLR
19:55 68.5 °F /  20.3 °C 51.6 °F /  10.9 °C 29.8in /  1010.3hPa ESE 7.4mph /  11.9km/h 6.9mph /  11.1km/h 55% 0in /  0.0mm CLR
20:00 68.2 °F /  20.1 °C 51.4 °F /  10.8 °C 29.8in /  1010.3hPa ESE 5mph /  8.0km/h 8mph /  12.9km/h 55% 0in /  0.0mm CLR
20:05 67.6 °F /  19.8 °C 51.4 °F /  10.8 °C 29.8in /  1010.5hPa SE 5.2mph /  8.4km/h 6.9mph /  11.1km/h 56% 0in /  0.0mm CLR
20:10 67.6 °F /  19.8 °C 51.4 °F /  10.8 °C 29.8in /  1010.5hPa ESE 4mph /  6.4km/h 5.9mph /  9.5km/h 56% 0in /  0.0mm CLR
20:15 67.5 °F /  19.7 °C 51.3 °F /  10.7 °C 29.8in /  1010.5hPa ESE 4mph /  6.4km/h 6.9mph /  11.1km/h 56% 0in /  0.0mm CLR
20:20 67.3 °F /  19.6 °C 51.4 °F /  10.8 °C 29.8in /  1010.4hPa SSE 4.3mph /  6.9km/h 4.6mph /  7.4km/h 57% 0in /  0.0mm CLR
20:25 67.3 °F /  19.6 °C 51.4 °F /  10.8 °C 29.8in /  1010.4hPa South 4.3mph /  6.9km/h 4.6mph /  7.4km/h 57% 0in /  0.0mm CLR
20:30 67.3 °F /  19.6 °C 50.2 °F /  10.1 °C 29.8in /  1010.4hPa SSE 3.6mph /  5.8km/h 8.1mph /  13.0km/h 54% 0in /  0.0mm CLR
20:35 67.3 °F /  19.6 °C 48.9 °F /  9.4 °C 29.8in /  1010.5hPa SW 3.6mph /  5.8km/h 6.4mph /  10.3km/h 52% 0in /  0.0mm CLR
20:40 67.3 °F /  19.6 °C 48.9 °F /  9.4 °C 29.8in /  1010.5hPa SSW 4.7mph /  7.6km/h 4.7mph /  7.6km/h 52% 0in /  0.0mm CLR
20:45 67.1 °F /  19.5 °C 48.4 °F /  9.1 °C 29.8in /  1010.5hPa WSW 4.7mph /  7.6km/h 8.1mph /  13.0km/h 51% 0in /  0.0mm CLR
20:50 67.1 °F /  19.5 °C 47.8 °F /  8.8 °C 29.8in /  1010.7hPa SW 3mph /  4.8km/h 7mph /  11.3km/h 50% 0in /  0.0mm CLR
20:55 66.9 °F /  19.4 °C 47.1 °F /  8.4 °C 29.8in /  1010.7hPa SW 3.6mph /  5.8km/h 6.9mph /  11.1km/h 49% 0in /  0.0mm CLR
21:00 66.9 °F /  19.4 °C 48.4 °F /  9.1 °C 29.8in /  1010.7hPa SW 5mph /  8.0km/h 6mph /  9.7km/h 51% 0in /  0.0mm CLR
21:05 66.9 °F /  19.4 °C 48.7 °F /  9.3 °C 29.9in /  1010.8hPa SSW 4.7mph /  7.6km/h 5.8mph /  9.3km/h 52% 0in /  0.0mm CLR
21:10 66.7 °F /  19.3 °C 50.2 °F /  10.1 °C 29.9in /  1010.8hPa WSW 4mph /  6.4km/h 6.9mph /  11.1km/h 55% 0in /  0.0mm CLR
21:15 66.6 °F /  19.2 °C 50.4 °F /  10.2 °C 29.9in /  1010.8hPa SW 4mph /  6.4km/h 5.8mph /  9.3km/h 56% 0in /  0.0mm CLR
21:20 66.2 °F /  19.0 °C 50.5 °F /  10.3 °C 29.9in /  1010.8hPa SW 5mph /  8.0km/h 9mph /  14.5km/h 57% 0in /  0.0mm CLR
21:25 66 °F /  18.9 °C 50.4 °F /  10.2 °C 29.9in /  1010.8hPa SW 5.2mph /  8.4km/h 5.8mph /  9.3km/h 57% 0in /  0.0mm CLR
21:30 65.8 °F /  18.8 °C 50.5 °F /  10.3 °C 29.9in /  1010.8hPa WSW 3.6mph /  5.8km/h 3.5mph /  5.6km/h 58% 0in /  0.0mm CLR
21:35 65.7 °F /  18.7 °C 50.5 °F /  10.3 °C 29.9in /  1011.1hPa WNW 3.6mph /  5.8km/h 4mph /  6.4km/h 58% 0in /  0.0mm CLR
21:40 65.7 °F /  18.7 °C 50.5 °F /  10.3 °C 29.9in /  1011.1hPa WNW 2mph /  3.2km/h   58% 0in /  0.0mm CLR
21:45 65.5 °F /  18.6 °C 50.7 °F /  10.4 °C 29.9in /  1011.1hPa SW 2mph /  3.2km/h 4.6mph /  7.4km/h 59% 0in /  0.0mm CLR
21:50 65.3 °F /  18.5 °C 50.5 °F /  10.3 °C 29.9in /  1011.3hPa SW 2mph /  3.2km/h 2.3mph /  3.7km/h 59% 0in /  0.0mm CLR
21:55 65.1 °F /  18.4 °C 50.9 °F /  10.5 °C 29.9in /  1011.3hPa SW 2mph /  3.2km/h 4.6mph /  7.4km/h 60% 0in /  0.0mm CLR
22:00 65.1 °F /  18.4 °C 50.9 °F /  10.5 °C 29.9in /  1011.3hPa SW 2mph /  3.2km/h 5mph /  8.0km/h 60% 0in /  0.0mm CLR
22:05 64.9 °F /  18.3 °C 51.3 °F /  10.7 °C 29.9in /  1011.4hPa SW 2.4mph /  3.9km/h   61% 0in /  0.0mm CLR
22:10 64.9 °F /  18.3 °C 51.3 °F /  10.7 °C 29.9in /  1011.4hPa SW 1.4mph /  2.3km/h   61% 0in /  0.0mm CLR
22:15 64.8 °F /  18.2 °C 51.1 °F /  10.6 °C 29.9in /  1011.4hPa SW 1.4mph /  2.3km/h   61% 0in /  0.0mm CLR
22:20 64.6 °F /  18.1 °C 50.7 °F /  10.4 °C 29.9in /  1011.6hPa Calm     61% 0in /  0.0mm CLR
22:25 64.4 °F /  18.0 °C 50.7 °F /  10.4 °C 29.9in /  1011.6hPa Calm     61% 0in /  0.0mm CLR
22:30 64.2 °F /  17.9 °C 50.5 °F /  10.3 °C 29.9in /  1011.6hPa Calm     61% 0in /  0.0mm CLR
22:35 64 °F /  17.8 °C 50.7 °F /  10.4 °C 29.9in /  1011.5hPa Calm   3.1mph /  5.0km/h 62% 0in /  0.0mm CLR
22:40 64 °F /  17.8 °C 51.3 °F /  10.7 °C 29.9in /  1011.5hPa NNW 1.4mph /  2.3km/h 4.6mph /  7.4km/h 63% 0in /  0.0mm CLR
22:45 63.7 °F /  17.6 °C 51.6 °F /  10.9 °C 29.9in /  1011.5hPa NNW 1.4mph /  2.3km/h   65% 0in /  0.0mm CLR
22:50 63.3 °F /  17.4 °C 51.8 °F /  11.0 °C 29.9in /  1011.9hPa NNW 2mph /  3.2km/h 5.8mph /  9.3km/h 66% 0in /  0.0mm CLR
22:55 62.8 °F /  17.1 °C 52.2 °F /  11.2 °C 29.9in /  1011.9hPa NNW 2mph /  3.2km/h 5.8mph /  9.3km/h 68% 0in /  0.0mm CLR
23:00 62.6 °F /  17.0 °C 52.3 °F /  11.3 °C 29.9in /  1011.9hPa NNW 3mph /  4.8km/h 5mph /  8.0km/h 69% 0in /  0.0mm CLR
23:05 62.4 °F /  16.9 °C 52.2 °F /  11.2 °C 29.9in /  1011.9hPa NW 3.6mph /  5.8km/h   69% 0in /  0.0mm CLR
23:10 62.4 °F /  16.9 °C 52.2 °F /  11.2 °C 29.9in /  1011.9hPa NW 1.4mph /  2.3km/h   69% 0in /  0.0mm CLR
23:15 62.4 °F /  16.9 °C 52.2 °F /  11.2 °C 29.9in /  1011.9hPa NW 1.4mph /  2.3km/h   69% 0in /  0.0mm CLR
23:20 62.4 °F /  16.9 °C 52.2 °F /  11.2 °C 29.9in /  1012.0hPa Calm   5.2mph /  8.4km/h 69% 0in /  0.0mm CLR
23:25 62.4 °F /  16.9 °C 52.5 °F /  11.4 °C 29.9in /  1012.0hPa Calm   9.7mph /  15.6km/h 70% 0in /  0.0mm CLR
23:30 62.1 °F /  16.7 °C 52.2 °F /  11.2 °C 29.9in /  1012.0hPa ENE 5mph /  8.0km/h 10mph /  16.1km/h 70% 0in /  0.0mm CLR
23:35 61.5 °F /  16.4 °C 52.9 °F /  11.6 °C 29.9in /  1012.0hPa ESE 4.3mph /  6.9km/h 5.8mph /  9.3km/h 73% 0in /  0.0mm CLR
23:40 61.3 °F /  16.3 °C 53.1 °F /  11.7 °C 29.9in /  1012.0hPa ENE 4.3mph /  6.9km/h 5.8mph /  9.3km/h 74% 0in /  0.0mm CLR
23:45 61 °F /  16.1 °C 53.4 °F /  11.9 °C 29.9in /  1012.0hPa NE 4.3mph /  6.9km/h 5.8mph /  9.3km/h 76% 0in /  0.0mm CLR
23:50 60.8 °F /  16.0 °C 53.4 °F /  11.9 °C 29.9in /  1012.0hPa NE 4mph /  6.4km/h 4.6mph /  7.4km/h 77% 0in /  0.0mm CLR
23:55 60.8 °F /  16.0 °C 54 °F /  12.2 °C 29.9in /  1012.0hPa NE 4mph /  6.4km/h 8.1mph /  13.0km/h 78% 0in /  0.0mm CLR
Murcia-Puente Tocinos, España
Compliments of Weather Underground - 2.75 mb

La estación de MeteoMurcia.com, publica sus datos en los siguientes proyectos:

Weather Underground PWS IMURCIAP2 Meteoclimatic www.awekas.at

W3Counter
Web Analytics